| Date | Time | Temp. (oF) | Dew Point (oF) | Rel. Hum. (%) | Press. (in.) | Wind Dir. | Wind Speed (mph) | Hourly Rainfall (in.) |
|
|---|---|---|---|---|---|---|---|---|---|
| 1 | 07/08 | 00:00 | 66 | 58 | 77 | 29.79 | SW | 0 | 0.00 |
| 2 | 07/07 | 23:00 | 68 | 57 | 70 | 29.77 | WSW | 0 | 0.00 |
| 3 | 07/07 | 22:00 | 70 | 55 | 61 | 29.75 | WSW | 0 | 0.00 |
| 4 | 07/07 | 21:00 | 75 | 53 | 48 | 29.72 | WNW | 0 | 0.00 |
| 5 | 07/07 | 20:00 | 81 | 52 | 38 | 29.70 | NW | 1 | 0.00 |
| 6 | 07/07 | 19:00 | 83 | 52 | 35 | 29.69 | W | 4 | 0.00 |
| 7 | 07/07 | 18:00 | 83 | 53 | 36 | 29.69 | WNW | 5 | 0.00 |
| 8 | 07/07 | 17:00 | 84 | 51 | 33 | 29.69 | NW | 5 | 0.00 |
| 9 | 07/07 | 16:00 | 85 | 55 | 37 | 29.70 | SW | 4 | 0.00 |
| 10 | 07/07 | 15:00 | 85 | 58 | 41 | 29.70 | WSW | 6 | 0.00 |
| 11 | 07/07 | 14:00 | 84 | 58 | 43 | 29.70 | SW | 7 | 0.00 |
| 12 | 07/07 | 13:00 | 84 | 59 | 44 | 29.71 | SSW | 3 | 0.00 |
| 13 | 07/07 | 12:00 | 82 | 59 | 47 | 29.72 | WNW | 9 | 0.00 |
| 14 | 07/07 | 11:00 | 81 | 60 | 50 | 29.73 | S | 4 | 0.00 |
| 15 | 07/07 | 10:00 | 78 | 61 | 57 | 29.74 | SSW | 5 | 0.00 |
| 16 | 07/07 | 09:00 | 74 | 67 | 79 | 29.76 | S | 0 | 0.00 |
| 17 | 07/07 | 08:00 | 65 | 64 | 97 | 29.76 | WNW | 0 | 0.00 |
| 18 | 07/07 | 07:00 | 61 | 59 | 95 | 29.75 | NW | 0 | 0.00 |
| 19 | 07/07 | 06:00 | 60 | 58 | 94 | 29.74 | NW | 0 | 0.00 |
| 20 | 07/07 | 05:00 | 61 | 58 | 92 | 29.74 | NW | 0 | 0.00 |
| 21 | 07/07 | 04:00 | 62 | 58 | 89 | 29.74 | NW | 0 | 0.00 |
| 22 | 07/07 | 03:00 | 64 | 59 | 85 | 29.76 | NW | 0 | 0.00 |
| 23 | 07/07 | 02:00 | 67 | 59 | 77 | 29.76 | NW | 0 | 0.00 |
| 24 | 07/07 | 01:00 | 69 | 59 | 73 | 29.76 | SW | 0 | 0.00 |